createdAt,value
2018-07-13T00:02:19.635Z,60.80
2018-07-13T00:04:47.454Z,60.50
2018-07-13T00:07:15.540Z,60.20
2018-07-13T00:09:43.207Z,60.30
2018-07-13T00:12:10.839Z,59.60
2018-07-13T00:14:46.814Z,60.00
2018-07-13T00:17:14.488Z,60.10
2018-07-13T00:19:42.253Z,59.60
2018-07-13T00:22:09.938Z,59.70
2018-07-13T00:24:37.570Z,59.30
2018-07-13T00:27:05.587Z,59.40
2018-07-13T00:29:33.234Z,59.60
2018-07-13T00:32:00.890Z,59.40
2018-07-13T00:34:28.547Z,59.40
2018-07-13T00:39:23.780Z,59.60
2018-07-13T00:41:51.581Z,59.40
2018-07-13T00:44:19.396Z,59.40
2018-07-13T00:46:46.952Z,60.20
2018-07-13T00:49:14.529Z,60.00
2018-07-13T00:54:09.910Z,59.40
2018-07-13T00:56:37.498Z,59.30
2018-07-13T00:59:05.092Z,59.50
2018-07-13T01:01:32.851Z,58.70
2018-07-13T01:04:00.399Z,58.60
2018-07-13T01:08:55.819Z,58.60
2018-07-13T01:11:23.436Z,58.90
2018-07-13T01:13:51.014Z,59.00
2018-07-13T01:18:46.248Z,59.10
2018-07-13T01:21:13.813Z,59.20
2018-07-13T01:23:41.372Z,58.50
2018-07-13T01:26:09.033Z,58.50
2018-07-13T01:28:36.784Z,59.10
2018-07-13T01:31:04.543Z,59.30
2018-07-13T01:33:32.083Z,59.40
2018-07-13T01:35:59.932Z,59.10
2018-07-13T01:38:27.875Z,58.70
2018-07-13T01:40:55.517Z,59.00
2018-07-13T01:43:23.182Z,60.40
2018-07-13T01:45:50.856Z,59.60
2018-07-13T01:48:18.693Z,59.40
2018-07-13T01:50:46.307Z,59.90
2018-07-13T01:53:13.922Z,59.50
2018-07-13T01:55:41.563Z,59.20
2018-07-13T01:58:09.229Z,59.10
2018-07-13T02:00:36.821Z,59.10
2018-07-13T02:03:04.379Z,58.90
2018-07-13T02:05:31.927Z,59.50
2018-07-13T02:07:59.539Z,58.50
2018-07-13T02:10:27.222Z,58.80
2018-07-13T02:12:54.851Z,58.50
2018-07-13T02:15:22.441Z,58.30
2018-07-13T02:17:50.186Z,58.20
2018-07-13T02:20:17.925Z,59.00
2018-07-13T02:22:45.571Z,58.50
2018-07-13T02:25:13.213Z,58.30
2018-07-13T02:27:40.877Z,58.90
2018-07-13T02:30:08.623Z,59.20
2018-07-13T02:32:36.220Z,59.30
2018-07-13T02:35:03.856Z,59.50
2018-07-13T02:37:31.464Z,58.90
2018-07-13T02:39:59.044Z,58.90
2018-07-13T02:42:26.729Z,58.80
2018-07-13T02:44:54.401Z,58.90
2018-07-13T02:47:22.133Z,59.30
2018-07-13T02:49:49.717Z,59.30
2018-07-13T02:52:17.431Z,59.60
2018-07-13T02:54:45.207Z,59.00
2018-07-13T02:57:12.821Z,58.70
2018-07-13T02:59:40.427Z,58.60
2018-07-13T03:02:08.047Z,58.60
2018-07-13T03:04:35.732Z,58.60
2018-07-13T03:07:03.417Z,58.70
2018-07-13T03:14:26.154Z,59.60
2018-07-13T03:16:53.810Z,58.40
2018-07-13T03:19:21.489Z,58.60
2018-07-13T03:21:49.106Z,58.90
2018-07-13T03:24:16.759Z,58.90
2018-07-13T03:26:44.488Z,58.50
2018-07-13T03:29:12.148Z,58.40
2018-07-13T03:31:39.804Z,58.10
2018-07-13T03:34:07.468Z,58.60
2018-07-13T03:36:35.043Z,58.10
2018-07-13T03:39:02.974Z,58.80
2018-07-13T03:41:30.721Z,58.80
2018-07-13T03:43:58.489Z,58.70
2018-07-13T03:46:26.059Z,59.00
2018-07-13T03:48:53.740Z,58.70
2018-07-13T03:51:21.455Z,57.90
2018-07-13T03:53:49.042Z,58.00
2018-07-13T03:56:16.635Z,58.00
2018-07-13T03:58:44.220Z,57.80
2018-07-13T04:01:12.221Z,58.30
2018-07-13T04:03:39.838Z,58.00
2018-07-13T04:06:07.568Z,58.40
2018-07-13T04:08:35.285Z,57.80
2018-07-13T04:11:03.031Z,57.90
2018-07-13T04:13:30.888Z,57.80
2018-07-13T04:15:58.491Z,59.50
2018-07-13T04:18:26.079Z,57.80
2018-07-13T04:20:54.024Z,57.20
2018-07-13T04:23:22.767Z,56.90
2018-07-13T04:25:51.311Z,56.60
2018-07-13T04:28:19.499Z,56.40
2018-07-13T04:30:47.171Z,56.40
2018-07-13T04:33:14.847Z,56.20
2018-07-13T04:35:42.990Z,55.80
2018-07-13T04:38:10.977Z,55.60
2018-07-13T04:40:38.560Z,55.70
2018-07-13T04:43:06.188Z,55.00
2018-07-13T04:45:33.835Z,55.80
2018-07-13T04:48:01.602Z,55.90
2018-07-13T04:50:29.217Z,56.10
2018-07-13T04:52:56.926Z,56.60
2018-07-13T04:55:25.043Z,55.60
2018-07-13T04:57:52.811Z,56.40
2018-07-13T05:00:20.892Z,56.50
2018-07-13T05:02:48.502Z,55.30
2018-07-13T05:05:16.113Z,55.60
2018-07-13T05:10:11.177Z,54.60
2018-07-13T05:12:38.792Z,56.30
2018-07-13T05:15:07.405Z,58.00
2018-07-13T05:17:34.955Z,60.40
2018-07-13T05:20:02.639Z,63.30
2018-07-13T05:22:30.215Z,61.00
2018-07-13T05:24:57.878Z,59.00
2018-07-13T05:27:25.745Z,59.40
2018-07-13T05:29:53.341Z,60.00
2018-07-13T05:34:48.534Z,59.80
2018-07-13T05:37:16.145Z,59.10
2018-07-13T05:39:43.768Z,59.10
2018-07-13T05:42:11.370Z,58.80
2018-07-13T05:44:39.017Z,58.20
2018-07-13T05:49:34.153Z,58.60
2018-07-13T05:52:01.695Z,58.60
2018-07-13T05:54:29.316Z,59.20
2018-07-13T05:56:57.067Z,59.80
2018-07-13T05:59:24.796Z,59.90
2018-07-13T06:01:52.420Z,59.40
2018-07-13T06:04:20.075Z,59.30
2018-07-13T06:06:47.666Z,59.00
2018-07-13T06:09:15.223Z,58.90
2018-07-13T06:11:43.500Z,59.10
2018-07-13T06:14:11.126Z,59.20
2018-07-13T06:16:38.698Z,58.10
2018-07-13T06:19:06.315Z,57.80
2018-07-13T06:21:33.885Z,57.70
2018-07-13T06:24:02.033Z,57.50
2018-07-13T06:26:29.604Z,56.60
2018-07-13T06:28:57.197Z,57.70
2018-07-13T06:31:24.781Z,58.10
2018-07-13T06:33:52.291Z,57.90
2018-07-13T06:36:19.891Z,57.50
2018-07-13T06:38:47.429Z,57.50
2018-07-13T06:41:15.048Z,56.50
2018-07-13T06:43:42.730Z,55.50
2018-07-13T06:46:10.352Z,55.20
2018-07-13T06:51:05.556Z,55.00
2018-07-13T06:53:33.126Z,53.90
2018-07-13T06:56:00.803Z,52.90
2018-07-13T07:01:06.693Z,51.70
2018-07-13T07:03:37.223Z,52.80
2018-07-13T07:06:09.020Z,52.90
2018-07-13T07:08:43.366Z,53.40
2018-07-13T07:11:10.878Z,53.40
2018-07-13T07:13:41.119Z,53.40
2018-07-13T07:16:08.851Z,53.10
2018-07-13T07:18:36.601Z,52.50
2018-07-13T07:21:04.235Z,51.40
2018-07-13T07:23:32.415Z,51.50
2018-07-13T07:26:00.750Z,51.50
2018-07-13T07:28:28.550Z,51.30
2018-07-13T07:30:57.021Z,51.40
2018-07-13T07:33:24.596Z,51.10
2018-07-13T07:35:52.443Z,50.40
2018-07-13T07:38:20.262Z,50.60
2018-07-13T07:40:48.531Z,50.60
2018-07-13T07:43:16.745Z,50.10
2018-07-13T07:45:44.436Z,49.80
2018-07-13T07:48:12.189Z,50.20
2018-07-13T07:50:39.747Z,48.90
2018-07-13T07:53:07.415Z,49.20
2018-07-13T07:55:35.034Z,48.50
2018-07-13T07:58:03.366Z,48.50
2018-07-13T08:00:31.094Z,48.60
2018-07-13T08:02:58.663Z,48.60
2018-07-13T08:05:26.430Z,49.10
2018-07-13T08:07:54.090Z,48.30
2018-07-13T08:10:21.645Z,48.50
2018-07-13T08:12:49.456Z,50.60
2018-07-13T08:15:17.085Z,50.80
2018-07-13T08:17:44.631Z,49.50
2018-07-13T08:20:16.924Z,50.10
2018-07-13T08:22:50.912Z,49.50
2018-07-13T08:25:18.499Z,50.30
2018-07-13T08:27:51.244Z,49.40
2018-07-13T08:30:27.033Z,48.50
2018-07-13T08:32:54.572Z,48.60
2018-07-13T08:35:22.252Z,48.20
2018-07-13T08:37:49.767Z,47.90
2018-07-13T08:40:17.161Z,48.70
2018-07-13T08:42:44.680Z,48.60
2018-07-13T08:45:12.187Z,49.50
2018-07-13T08:47:39.685Z,50.50
2018-07-13T08:50:07.188Z,50.00
2018-07-13T08:52:34.722Z,49.70
2018-07-13T08:55:06.728Z,50.20
2018-07-13T08:57:34.278Z,49.60
2018-07-13T09:00:01.820Z,50.80
2018-07-13T09:02:29.296Z,50.20
2018-07-13T09:04:56.850Z,49.90
2018-07-13T09:07:24.373Z,49.70
2018-07-13T09:09:51.944Z,49.70
2018-07-13T09:12:19.551Z,50.00
2018-07-13T09:14:47.041Z,49.10
2018-07-13T09:17:14.551Z,50.20
2018-07-13T09:19:42.050Z,49.40
2018-07-13T09:22:09.584Z,50.00
2018-07-13T09:24:37.090Z,49.60
2018-07-13T09:27:04.609Z,50.00
2018-07-13T09:29:32.172Z,50.00
2018-07-13T09:31:59.668Z,50.50
2018-07-13T09:34:27.179Z,50.30
2018-07-13T09:36:54.705Z,50.50
2018-07-13T09:39:22.265Z,50.10
2018-07-13T09:41:49.819Z,49.40
2018-07-13T09:44:17.295Z,51.40
2018-07-13T09:46:44.885Z,51.40
2018-07-13T09:49:12.343Z,50.10
2018-07-13T09:51:39.804Z,50.80
2018-07-13T09:54:07.421Z,50.10
2018-07-13T09:56:34.818Z,48.70
2018-07-13T09:59:02.311Z,50.00
2018-07-13T10:01:29.855Z,50.10
2018-07-13T10:03:57.350Z,50.80
2018-07-13T10:06:25.058Z,51.20
2018-07-13T10:08:52.699Z,50.70
2018-07-13T10:11:20.230Z,51.50
2018-07-13T10:13:47.896Z,50.70
2018-07-13T10:16:15.456Z,51.60
2018-07-13T10:18:43.008Z,50.90
2018-07-13T10:21:10.576Z,51.10
2018-07-13T10:23:38.628Z,50.40
2018-07-13T10:26:08.156Z,49.90
2018-07-13T10:28:38.103Z,50.30
2018-07-13T10:31:06.003Z,50.40
2018-07-13T10:33:33.651Z,49.80
2018-07-13T10:36:01.344Z,51.50
2018-07-13T10:38:28.920Z,51.60
2018-07-13T10:40:56.429Z,51.10
2018-07-13T10:43:23.960Z,51.90
2018-07-13T10:45:51.796Z,51.80
2018-07-13T10:48:19.245Z,51.30
2018-07-13T10:50:46.760Z,51.60
2018-07-13T10:53:14.259Z,51.80
2018-07-13T10:55:41.796Z,52.30
2018-07-13T10:58:09.319Z,52.10
2018-07-13T11:00:36.817Z,53.40
2018-07-13T11:03:04.360Z,52.10
2018-07-13T11:05:31.834Z,53.00
2018-07-13T11:07:59.348Z,52.30
2018-07-13T11:10:26.843Z,51.60
2018-07-13T11:12:54.347Z,52.50
2018-07-13T11:15:21.959Z,52.50
2018-07-13T11:20:16.939Z,52.80
2018-07-13T11:22:44.405Z,52.40
2018-07-13T11:25:11.984Z,52.00
2018-07-13T11:27:39.585Z,53.10
2018-07-13T11:32:34.659Z,53.10
2018-07-13T11:35:02.233Z,53.60
2018-07-13T11:37:29.720Z,53.50
2018-07-13T11:39:57.231Z,53.60
2018-07-13T11:42:24.756Z,53.90
2018-07-13T11:44:52.223Z,53.80
2018-07-13T11:47:19.740Z,53.90
2018-07-13T11:49:47.244Z,53.70
2018-07-13T11:52:14.811Z,53.60
2018-07-13T11:54:42.379Z,53.00
2018-07-13T11:57:09.836Z,53.60
2018-07-13T11:59:37.362Z,53.40
2018-07-13T12:02:04.853Z,53.70
2018-07-13T12:04:32.452Z,52.60
2018-07-13T12:06:59.999Z,52.80
2018-07-13T12:11:55.047Z,52.30
2018-07-13T12:14:22.618Z,52.60
2018-07-13T12:16:50.084Z,52.40
2018-07-13T12:19:17.607Z,53.10
2018-07-13T12:24:12.771Z,53.10
2018-07-13T12:26:40.372Z,53.80
2018-07-13T12:29:07.917Z,53.30
2018-07-13T12:31:35.416Z,52.70
2018-07-13T12:34:02.898Z,52.90
2018-07-13T12:36:30.424Z,52.80
2018-07-13T12:38:57.876Z,53.50
2018-07-13T12:41:25.319Z,54.30
2018-07-13T12:43:52.821Z,53.40
2018-07-13T12:46:20.304Z,53.60
2018-07-13T12:48:47.818Z,53.40
2018-07-13T12:51:15.318Z,52.70
2018-07-13T12:53:42.806Z,53.50
2018-07-13T12:56:10.311Z,53.30
2018-07-13T12:58:37.935Z,52.70
2018-07-13T13:46:01.291Z,54.10
2018-07-13T13:57:01.709Z,54.50
2018-07-13T14:06:18.097Z,54.00
2018-07-13T14:11:31.139Z,55.70
2018-07-13T14:14:08.448Z,53.70
2018-07-13T14:16:50.236Z,52.20
2018-07-13T14:32:25.216Z,53.10
2018-07-13T14:37:49.766Z,55.20
2018-07-13T14:53:38.934Z,54.70
2018-07-13T14:56:19.280Z,53.50
2018-07-13T14:58:55.953Z,53.30
2018-07-13T15:07:12.239Z,53.80
2018-07-13T15:09:49.815Z,52.90
2018-07-13T15:29:04.568Z,54.00
2018-07-13T15:41:42.751Z,52.20
2018-07-13T15:57:03.833Z,55.10
2018-07-13T16:12:20.214Z,53.10
2018-07-13T16:24:43.864Z,53.60
2018-07-13T16:40:20.713Z,53.30
2018-07-13T16:42:56.945Z,53.60
2018-07-13T16:45:37.618Z,52.10
2018-07-13T17:00:57.403Z,54.30
2018-07-13T17:13:16.683Z,54.20
2018-07-13T17:24:08.549Z,55.40
2018-07-13T17:27:04.828Z,55.50
2018-07-13T17:29:43.374Z,54.50
2018-07-13T17:37:37.992Z,53.20
2018-07-13T17:40:15.813Z,52.60
2018-07-13T17:42:57.810Z,53.90
2018-07-13T17:45:34.948Z,55.80
2018-07-13T17:48:16.023Z,56.50
2018-07-13T17:50:53.600Z,55.60
2018-07-13T17:53:35.220Z,55.10
2018-07-13T18:02:48.063Z,57.10
